sensor_id;sensor_type;location;lat;lon;timestamp;P1;durP1;ratioP1;P2;durP2;ratioP2
77276;SDS011;66330;52.166;9.978;2023-03-01T00:01:06;19.07;;;17.00;;
77276;SDS011;66330;52.166;9.978;2023-03-01T00:03:34;16.20;;;14.53;;
77276;SDS011;66330;52.166;9.978;2023-03-01T00:06:00;25.50;;;17.93;;
77276;SDS011;66330;52.166;9.978;2023-03-01T00:08:27;19.50;;;17.00;;
77276;SDS011;66330;52.166;9.978;2023-03-01T00:13:39;17.60;;;15.77;;
77276;SDS011;66330;52.166;9.978;2023-03-01T00:16:06;17.73;;;15.83;;
77276;SDS011;66330;52.166;9.978;2023-03-01T00:18:33;21.67;;;15.20;;
77276;SDS011;66330;52.166;9.978;2023-03-01T00:20:59;18.53;;;16.10;;
77276;SDS011;66330;52.166;9.978;2023-03-01T00:23:25;19.60;;;16.70;;
77276;SDS011;66330;52.166;9.978;2023-03-01T00:25:52;21.00;;;15.53;;
77276;SDS011;66330;52.166;9.978;2023-03-01T00:28:19;17.37;;;15.57;;
77276;SDS011;66330;52.166;9.978;2023-03-01T00:30:46;20.17;;;15.80;;
77276;SDS011;66330;52.166;9.978;2023-03-01T00:33:12;18.83;;;15.23;;
77276;SDS011;66330;52.166;9.978;2023-03-01T00:35:38;22.60;;;16.60;;
77276;SDS011;66330;52.166;9.978;2023-03-01T00:38:04;22.33;;;16.47;;
77276;SDS011;66330;52.166;9.978;2023-03-01T00:40:31;19.40;;;15.30;;
77276;SDS011;66330;52.166;9.978;2023-03-01T00:42:58;19.07;;;17.00;;
77276;SDS011;66330;52.166;9.978;2023-03-01T00:45:23;17.13;;;15.30;;
77276;SDS011;66330;52.166;9.978;2023-03-01T00:47:50;17.50;;;14.80;;
77276;SDS011;66330;52.166;9.978;2023-03-01T00:50:16;19.00;;;16.70;;
77276;SDS011;66330;52.166;9.978;2023-03-01T00:52:42;19.70;;;17.37;;
77276;SDS011;66330;52.166;9.978;2023-03-01T00:55:08;22.97;;;17.17;;
77276;SDS011;66330;52.166;9.978;2023-03-01T00:57:34;21.27;;;18.07;;
77276;SDS011;66330;52.166;9.978;2023-03-01T01:00:00;17.50;;;15.47;;
77276;SDS011;66330;52.166;9.978;2023-03-01T01:02:25;18.70;;;16.10;;
77276;SDS011;66330;52.166;9.978;2023-03-01T01:04:51;18.80;;;15.33;;
77276;SDS011;66330;52.166;9.978;2023-03-01T01:07:17;21.30;;;16.00;;
77276;SDS011;66330;52.166;9.978;2023-03-01T01:09:45;20.27;;;16.00;;
77276;SDS011;66330;52.166;9.978;2023-03-01T01:12:10;19.50;;;16.70;;
77276;SDS011;66330;52.166;9.978;2023-03-01T01:14:36;23.83;;;16.03;;
77276;SDS011;66330;52.166;9.978;2023-03-01T01:17:02;22.40;;;16.00;;
77276;SDS011;66330;52.166;9.978;2023-03-01T01:19:28;16.90;;;15.20;;
77276;SDS011;66330;52.166;9.978;2023-03-01T01:21:54;16.80;;;15.10;;
77276;SDS011;66330;52.166;9.978;2023-03-01T01:24:19;21.70;;;18.73;;
77276;SDS011;66330;52.166;9.978;2023-03-01T01:26:45;20.37;;;15.40;;
77276;SDS011;66330;52.166;9.978;2023-03-01T01:29:12;21.73;;;15.40;;
77276;SDS011;66330;52.166;9.978;2023-03-01T01:31:38;16.77;;;14.83;;
77276;SDS011;66330;52.166;9.978;2023-03-01T01:34:06;19.90;;;16.00;;
77276;SDS011;66330;52.166;9.978;2023-03-01T01:36:33;18.20;;;14.00;;
77276;SDS011;66330;52.166;9.978;2023-03-01T01:39:00;17.17;;;15.33;;
77276;SDS011;66330;52.166;9.978;2023-03-01T01:41:27;18.03;;;14.53;;
77276;SDS011;66330;52.166;9.978;2023-03-01T01:46:44;18.13;;;14.80;;
77276;SDS011;66330;52.166;9.978;2023-03-01T01:51:48;17.00;;;15.17;;
77276;SDS011;66330;52.166;9.978;2023-03-01T01:54:22;16.90;;;14.70;;
77276;SDS011;66330;52.166;9.978;2023-03-01T01:57:00;17.73;;;14.63;;
77276;SDS011;66330;52.166;9.978;2023-03-01T01:59:30;17.07;;;13.80;;
77276;SDS011;66330;52.166;9.978;2023-03-01T02:01:58;19.23;;;14.90;;
77276;SDS011;66330;52.166;9.978;2023-03-01T02:04:25;16.70;;;14.27;;
77276;SDS011;66330;52.166;9.978;2023-03-01T02:06:53;17.47;;;15.67;;
77276;SDS011;66330;52.166;9.978;2023-03-01T02:09:24;17.97;;;14.17;;
77276;SDS011;66330;52.166;9.978;2023-03-01T02:11:50;18.50;;;14.53;;
77276;SDS011;66330;52.166;9.978;2023-03-01T02:14:17;21.10;;;15.13;;
77276;SDS011;66330;52.166;9.978;2023-03-01T02:16:42;17.47;;;14.50;;
77276;SDS011;66330;52.166;9.978;2023-03-01T02:19:08;17.60;;;14.50;;
77276;SDS011;66330;52.166;9.978;2023-03-01T02:21:47;18.63;;;14.70;;
77276;SDS011;66330;52.166;9.978;2023-03-01T02:24:47;17.30;;;14.30;;
77276;SDS011;66330;52.166;9.978;2023-03-01T02:27:24;17.20;;;15.17;;
77276;SDS011;66330;52.166;9.978;2023-03-01T02:29:56;26.27;;;14.83;;
77276;SDS011;66330;52.166;9.978;2023-03-01T02:32:21;21.63;;;15.67;;
77276;SDS011;66330;52.166;9.978;2023-03-01T02:34:53;21.10;;;16.90;;
77276;SDS011;66330;52.166;9.978;2023-03-01T02:37:20;23.67;;;15.60;;
77276;SDS011;66330;52.166;9.978;2023-03-01T02:39:49;19.30;;;16.53;;
77276;SDS011;66330;52.166;9.978;2023-03-01T02:42:24;21.00;;;14.53;;
77276;SDS011;66330;52.166;9.978;2023-03-01T02:44:55;22.77;;;16.37;;
77276;SDS011;66330;52.166;9.978;2023-03-01T02:47:21;17.20;;;14.50;;
77276;SDS011;66330;52.166;9.978;2023-03-01T02:49:47;24.80;;;18.40;;
77276;SDS011;66330;52.166;9.978;2023-03-01T02:55:08;26.50;;;19.30;;
77276;SDS011;66330;52.166;9.978;2023-03-01T02:57:40;22.00;;;18.17;;
77276;SDS011;66330;52.166;9.978;2023-03-01T03:00:09;23.80;;;19.67;;
77276;SDS011;66330;52.166;9.978;2023-03-01T03:02:46;23.83;;;18.47;;
77276;SDS011;66330;52.166;9.978;2023-03-01T03:05:21;22.57;;;15.87;;
77276;SDS011;66330;52.166;9.978;2023-03-01T03:07:54;23.43;;;18.70;;
77276;SDS011;66330;52.166;9.978;2023-03-01T03:10:22;22.23;;;17.70;;
77276;SDS011;66330;52.166;9.978;2023-03-01T03:13:00;22.97;;;18.70;;
77276;SDS011;66330;52.166;9.978;2023-03-01T03:15:30;29.40;;;18.47;;
77276;SDS011;66330;52.166;9.978;2023-03-01T03:17:57;24.70;;;19.10;;
77276;SDS011;66330;52.166;9.978;2023-03-01T03:20:24;20.73;;;18.17;;
77276;SDS011;66330;52.166;9.978;2023-03-01T03:22:53;24.20;;;18.30;;
77276;SDS011;66330;52.166;9.978;2023-03-01T03:25:20;25.13;;;18.67;;
77276;SDS011;66330;52.166;9.978;2023-03-01T03:27:47;20.20;;;16.30;;
77276;SDS011;66330;52.166;9.978;2023-03-01T03:30:15;18.03;;;16.13;;
77276;SDS011;66330;52.166;9.978;2023-03-01T03:32:44;19.10;;;16.90;;
77276;SDS011;66330;52.166;9.978;2023-03-01T03:35:17;20.47;;;17.37;;
77276;SDS011;66330;52.166;9.978;2023-03-01T03:37:50;25.07;;;17.80;;
77276;SDS011;66330;52.166;9.978;2023-03-01T03:40:29;19.70;;;17.00;;
77276;SDS011;66330;52.166;9.978;2023-03-01T03:42:55;18.70;;;16.70;;
77276;SDS011;66330;52.166;9.978;2023-03-01T03:45:21;24.17;;;18.17;;
77276;SDS011;66330;52.166;9.978;2023-03-01T03:47:47;20.37;;;15.77;;
77276;SDS011;66330;52.166;9.978;2023-03-01T03:50:13;19.97;;;17.47;;
77276;SDS011;66330;52.166;9.978;2023-03-01T03:52:40;20.27;;;15.70;;
77276;SDS011;66330;52.166;9.978;2023-03-01T03:55:07;19.10;;;14.20;;
77276;SDS011;66330;52.166;9.978;2023-03-01T03:57:37;19.00;;;13.90;;
77276;SDS011;66330;52.166;9.978;2023-03-01T04:00:03;16.43;;;12.70;;
77276;SDS011;66330;52.166;9.978;2023-03-01T04:02:30;19.03;;;14.70;;
77276;SDS011;66330;52.166;9.978;2023-03-01T04:04:56;17.97;;;14.73;;
77276;SDS011;66330;52.166;9.978;2023-03-01T04:07:21;17.87;;;14.20;;
77276;SDS011;66330;52.166;9.978;2023-03-01T04:09:47;17.00;;;15.23;;
77276;SDS011;66330;52.166;9.978;2023-03-01T04:12:13;16.63;;;14.67;;
77276;SDS011;66330;52.166;9.978;2023-03-01T04:14:38;17.53;;;15.20;;
77276;SDS011;66330;52.166;9.978;2023-03-01T04:17:04;14.37;;;12.93;;
77276;SDS011;66330;52.166;9.978;2023-03-01T04:19:30;16.03;;;14.40;;
77276;SDS011;66330;52.166;9.978;2023-03-01T04:22:01;15.93;;;14.20;;
77276;SDS011;66330;52.166;9.978;2023-03-01T04:24:32;17.00;;;14.57;;
77276;SDS011;66330;52.166;9.978;2023-03-01T04:26:58;16.67;;;13.70;;
77276;SDS011;66330;52.166;9.978;2023-03-01T04:29:24;14.27;;;12.80;;
77276;SDS011;66330;52.166;9.978;2023-03-01T04:31:49;20.27;;;13.90;;
77276;SDS011;66330;52.166;9.978;2023-03-01T04:34:15;18.30;;;13.17;;
77276;SDS011;66330;52.166;9.978;2023-03-01T04:36:40;17.10;;;12.00;;
77276;SDS011;66330;52.166;9.978;2023-03-01T04:39:06;18.20;;;12.80;;
77276;SDS011;66330;52.166;9.978;2023-03-01T04:41:37;19.67;;;13.67;;
77276;SDS011;66330;52.166;9.978;2023-03-01T04:44:04;15.93;;;12.70;;
77276;SDS011;66330;52.166;9.978;2023-03-01T04:46:30;15.87;;;11.90;;
77276;SDS011;66330;52.166;9.978;2023-03-01T04:48:56;17.90;;;13.33;;
77276;SDS011;66330;52.166;9.978;2023-03-01T04:51:21;15.50;;;13.63;;
77276;SDS011;66330;52.166;9.978;2023-03-01T04:53:47;14.87;;;12.23;;
77276;SDS011;66330;52.166;9.978;2023-03-01T04:56:13;19.20;;;15.20;;
77276;SDS011;66330;52.166;9.978;2023-03-01T04:58:39;16.43;;;14.30;;
77276;SDS011;66330;52.166;9.978;2023-03-01T05:01:12;19.73;;;15.30;;
77276;SDS011;66330;52.166;9.978;2023-03-01T05:03:43;15.47;;;13.47;;
77276;SDS011;66330;52.166;9.978;2023-03-01T05:06:10;14.33;;;12.37;;
77276;SDS011;66330;52.166;9.978;2023-03-01T05:08:37;15.00;;;12.23;;
77276;SDS011;66330;52.166;9.978;2023-03-01T05:11:03;14.23;;;12.10;;
77276;SDS011;66330;52.166;9.978;2023-03-01T05:13:30;16.90;;;13.47;;
77276;SDS011;66330;52.166;9.978;2023-03-01T05:15:58;19.43;;;14.10;;
77276;SDS011;66330;52.166;9.978;2023-03-01T05:18:25;15.10;;;12.23;;
77276;SDS011;66330;52.166;9.978;2023-03-01T05:20:52;16.47;;;14.70;;
77276;SDS011;66330;52.166;9.978;2023-03-01T05:23:23;13.70;;;11.93;;
77276;SDS011;66330;52.166;9.978;2023-03-01T05:25:50;17.80;;;12.87;;
77276;SDS011;66330;52.166;9.978;2023-03-01T05:28:17;16.10;;;12.70;;
77276;SDS011;66330;52.166;9.978;2023-03-01T05:30:44;13.97;;;11.50;;
77276;SDS011;66330;52.166;9.978;2023-03-01T05:33:11;15.10;;;10.80;;
77276;SDS011;66330;52.166;9.978;2023-03-01T05:35:40;18.70;;;11.53;;
77276;SDS011;66330;52.166;9.978;2023-03-01T05:38:07;13.97;;;12.17;;
77276;SDS011;66330;52.166;9.978;2023-03-01T05:40:33;12.70;;;11.40;;
77276;SDS011;66330;52.166;9.978;2023-03-01T05:43:00;15.80;;;11.50;;
77276;SDS011;66330;52.166;9.978;2023-03-01T05:45:27;19.17;;;13.80;;
77276;SDS011;66330;52.166;9.978;2023-03-01T05:47:54;14.80;;;11.20;;
77276;SDS011;66330;52.166;9.978;2023-03-01T05:50:27;13.73;;;11.37;;
77276;SDS011;66330;52.166;9.978;2023-03-01T05:53:01;12.83;;;11.50;;
77276;SDS011;66330;52.166;9.978;2023-03-01T05:55:29;13.00;;;10.90;;
77276;SDS011;66330;52.166;9.978;2023-03-01T05:57:58;15.43;;;12.47;;
77276;SDS011;66330;52.166;9.978;2023-03-01T06:00:25;14.20;;;12.70;;
77276;SDS011;66330;52.166;9.978;2023-03-01T06:02:51;18.97;;;13.23;;
77276;SDS011;66330;52.166;9.978;2023-03-01T06:05:18;17.07;;;12.13;;
77276;SDS011;66330;52.166;9.978;2023-03-01T06:07:43;13.77;;;11.33;;
77276;SDS011;66330;52.166;9.978;2023-03-01T06:10:09;13.53;;;11.53;;
77276;SDS011;66330;52.166;9.978;2023-03-01T06:12:37;17.17;;;12.10;;
77276;SDS011;66330;52.166;9.978;2023-03-01T06:15:04;13.40;;;12.10;;
77276;SDS011;66330;52.166;9.978;2023-03-01T06:17:32;15.10;;;12.43;;
77276;SDS011;66330;52.166;9.978;2023-03-01T06:20:05;16.73;;;13.27;;
77276;SDS011;66330;52.166;9.978;2023-03-01T06:22:58;14.00;;;11.23;;
77276;SDS011;66330;52.166;9.978;2023-03-01T06:25:25;14.30;;;10.90;;
77276;SDS011;66330;52.166;9.978;2023-03-01T06:27:51;15.83;;;11.50;;
77276;SDS011;66330;52.166;9.978;2023-03-01T06:30:18;17.47;;;12.80;;
77276;SDS011;66330;52.166;9.978;2023-03-01T06:32:45;15.27;;;11.73;;
77276;SDS011;66330;52.166;9.978;2023-03-01T06:35:12;16.03;;;12.37;;
77276;SDS011;66330;52.166;9.978;2023-03-01T06:37:39;14.57;;;11.83;;
77276;SDS011;66330;52.166;9.978;2023-03-01T06:40:05;16.87;;;13.30;;
77276;SDS011;66330;52.166;9.978;2023-03-01T06:42:36;21.60;;;13.10;;
77276;SDS011;66330;52.166;9.978;2023-03-01T06:45:03;16.73;;;11.90;;
77276;SDS011;66330;52.166;9.978;2023-03-01T06:47:30;16.33;;;13.43;;
77276;SDS011;66330;52.166;9.978;2023-03-01T06:49:56;17.20;;;13.70;;
77276;SDS011;66330;52.166;9.978;2023-03-01T06:52:21;13.33;;;12.00;;
77276;SDS011;66330;52.166;9.978;2023-03-01T06:54:47;15.90;;;11.70;;
77276;SDS011;66330;52.166;9.978;2023-03-01T06:57:13;14.73;;;11.50;;
77276;SDS011;66330;52.166;9.978;2023-03-01T06:59:38;14.00;;;12.50;;
77276;SDS011;66330;52.166;9.978;2023-03-01T07:02:04;13.53;;;12.10;;
77276;SDS011;66330;52.166;9.978;2023-03-01T07:04:29;14.33;;;12.37;;
77276;SDS011;66330;52.166;9.978;2023-03-01T07:06:55;15.17;;;13.13;;
77276;SDS011;66330;52.166;9.978;2023-03-01T07:09:22;14.50;;;13.00;;
77276;SDS011;66330;52.166;9.978;2023-03-01T07:11:48;13.30;;;11.90;;
77276;SDS011;66330;52.166;9.978;2023-03-01T07:14:14;14.80;;;12.83;;
77276;SDS011;66330;52.166;9.978;2023-03-01T07:16:40;14.37;;;12.33;;
77276;SDS011;66330;52.166;9.978;2023-03-01T07:19:05;14.10;;;12.27;;
77276;SDS011;66330;52.166;9.978;2023-03-01T07:21:31;16.93;;;13.00;;
77276;SDS011;66330;52.166;9.978;2023-03-01T07:23:56;19.97;;;13.80;;
77276;SDS011;66330;52.166;9.978;2023-03-01T07:26:22;16.50;;;13.60;;
77276;SDS011;66330;52.166;9.978;2023-03-01T07:28:48;14.33;;;11.90;;
77276;SDS011;66330;52.166;9.978;2023-03-01T07:31:13;15.83;;;12.63;;
77276;SDS011;66330;52.166;9.978;2023-03-01T07:33:39;19.10;;;13.83;;
77276;SDS011;66330;52.166;9.978;2023-03-01T07:36:05;38.07;;;30.27;;
77276;SDS011;66330;52.166;9.978;2023-03-01T07:38:31;14.07;;;12.67;;
77276;SDS011;66330;52.166;9.978;2023-03-01T07:40:58;17.00;;;12.83;;
77276;SDS011;66330;52.166;9.978;2023-03-01T07:43:25;14.63;;;13.03;;
77276;SDS011;66330;52.166;9.978;2023-03-01T07:45:52;21.00;;;13.90;;
77276;SDS011;66330;52.166;9.978;2023-03-01T07:48:17;17.13;;;13.50;;
77276;SDS011;66330;52.166;9.978;2023-03-01T07:50:43;14.40;;;12.80;;
77276;SDS011;66330;52.166;9.978;2023-03-01T07:53:09;15.50;;;13.63;;
77276;SDS011;66330;52.166;9.978;2023-03-01T07:55:37;14.70;;;13.13;;
77276;SDS011;66330;52.166;9.978;2023-03-01T07:58:03;14.60;;;13.10;;
77276;SDS011;66330;52.166;9.978;2023-03-01T08:00:29;15.13;;;13.53;;
77276;SDS011;66330;52.166;9.978;2023-03-01T08:02:58;14.13;;;12.63;;
77276;SDS011;66330;52.166;9.978;2023-03-01T08:05:24;16.00;;;14.50;;
77276;SDS011;66330;52.166;9.978;2023-03-01T08:07:50;15.27;;;13.87;;
77276;SDS011;66330;52.166;9.978;2023-03-01T08:10:15;16.27;;;14.77;;
77276;SDS011;66330;52.166;9.978;2023-03-01T08:12:41;16.13;;;14.60;;
77276;SDS011;66330;52.166;9.978;2023-03-01T08:15:07;14.60;;;13.20;;
77276;SDS011;66330;52.166;9.978;2023-03-01T08:17:33;16.50;;;14.40;;
77276;SDS011;66330;52.166;9.978;2023-03-01T08:19:59;16.63;;;15.00;;
77276;SDS011;66330;52.166;9.978;2023-03-01T08:22:24;15.97;;;14.30;;
77276;SDS011;66330;52.166;9.978;2023-03-01T08:24:50;15.47;;;13.67;;
77276;SDS011;66330;52.166;9.978;2023-03-01T08:27:16;16.50;;;14.90;;
77276;SDS011;66330;52.166;9.978;2023-03-01T08:29:42;16.23;;;14.57;;
77276;SDS011;66330;52.166;9.978;2023-03-01T08:32:08;19.17;;;14.87;;
77276;SDS011;66330;52.166;9.978;2023-03-01T08:34:33;15.13;;;13.53;;
77276;SDS011;66330;52.166;9.978;2023-03-01T08:37:00;17.63;;;14.00;;
77276;SDS011;66330;52.166;9.978;2023-03-01T08:39:26;16.93;;;15.13;;
77276;SDS011;66330;52.166;9.978;2023-03-01T08:41:52;16.63;;;15.03;;
77276;SDS011;66330;52.166;9.978;2023-03-01T08:44:18;16.47;;;14.97;;
77276;SDS011;66330;52.166;9.978;2023-03-01T08:46:45;16.80;;;15.07;;
77276;SDS011;66330;52.166;9.978;2023-03-01T08:49:13;17.07;;;15.47;;
77276;SDS011;66330;52.166;9.978;2023-03-01T08:51:40;17.10;;;15.50;;
77276;SDS011;66330;52.166;9.978;2023-03-01T08:54:07;16.67;;;15.13;;
77276;SDS011;66330;52.166;9.978;2023-03-01T08:56:36;17.10;;;14.57;;
77276;SDS011;66330;52.166;9.978;2023-03-01T08:59:02;16.03;;;14.53;;
77276;SDS011;66330;52.166;9.978;2023-03-01T09:01:28;15.30;;;13.77;;
77276;SDS011;66330;52.166;9.978;2023-03-01T09:03:54;15.97;;;14.47;;
77276;SDS011;66330;52.166;9.978;2023-03-01T09:06:19;15.43;;;14.03;;
77276;SDS011;66330;52.166;9.978;2023-03-01T09:08:46;15.10;;;13.70;;
77276;SDS011;66330;52.166;9.978;2023-03-01T09:11:15;14.17;;;12.97;;
77276;SDS011;66330;52.166;9.978;2023-03-01T09:13:46;14.17;;;12.97;;
77276;SDS011;66330;52.166;9.978;2023-03-01T09:16:14;14.93;;;13.43;;
77276;SDS011;66330;52.166;9.978;2023-03-01T09:18:42;12.77;;;11.67;;
77276;SDS011;66330;52.166;9.978;2023-03-01T09:21:15;13.53;;;12.30;;
77276;SDS011;66330;52.166;9.978;2023-03-01T09:23:45;13.30;;;11.90;;
77276;SDS011;66330;52.166;9.978;2023-03-01T09:26:13;14.07;;;12.60;;
77276;SDS011;66330;52.166;9.978;2023-03-01T09:28:48;12.90;;;11.80;;
77276;SDS011;66330;52.166;9.978;2023-03-01T09:31:15;11.20;;;10.20;;
77276;SDS011;66330;52.166;9.978;2023-03-01T09:33:42;13.10;;;11.30;;
77276;SDS011;66330;52.166;9.978;2023-03-01T09:36:10;12.70;;;11.50;;
77276;SDS011;66330;52.166;9.978;2023-03-01T09:38:37;11.93;;;10.93;;
77276;SDS011;66330;52.166;9.978;2023-03-01T09:41:09;13.47;;;12.00;;
77276;SDS011;66330;52.166;9.978;2023-03-01T09:46:13;12.97;;;11.80;;
77276;SDS011;66330;52.166;9.978;2023-03-01T09:49:02;12.90;;;11.70;;
77276;SDS011;66330;52.166;9.978;2023-03-01T09:51:30;13.17;;;11.87;;
77276;SDS011;66330;52.166;9.978;2023-03-01T09:53:58;13.97;;;12.40;;
77276;SDS011;66330;52.166;9.978;2023-03-01T09:56:29;14.87;;;13.40;;
77276;SDS011;66330;52.166;9.978;2023-03-01T10:01:40;14.00;;;12.60;;
77276;SDS011;66330;52.166;9.978;2023-03-01T10:06:44;21.27;;;19.10;;
77276;SDS011;66330;52.166;9.978;2023-03-01T10:09:23;17.63;;;15.93;;
77276;SDS011;66330;52.166;9.978;2023-03-01T10:11:50;15.73;;;14.20;;
77276;SDS011;66330;52.166;9.978;2023-03-01T10:14:28;16.20;;;13.87;;
77276;SDS011;66330;52.166;9.978;2023-03-01T10:20:05;15.90;;;14.30;;
77276;SDS011;66330;52.166;9.978;2023-03-01T10:22:38;14.30;;;12.80;;
77276;SDS011;66330;52.166;9.978;2023-03-01T10:25:04;14.43;;;13.13;;
77276;SDS011;66330;52.166;9.978;2023-03-01T10:30:19;15.50;;;13.07;;
77276;SDS011;66330;52.166;9.978;2023-03-01T10:32:59;14.53;;;12.97;;
77276;SDS011;66330;52.166;9.978;2023-03-01T10:35:27;13.30;;;12.10;;
77276;SDS011;66330;52.166;9.978;2023-03-01T10:38:06;12.27;;;11.20;;
77276;SDS011;66330;52.166;9.978;2023-03-01T10:40:33;11.60;;;10.60;;
77276;SDS011;66330;52.166;9.978;2023-03-01T10:43:01;11.57;;;10.47;;
77276;SDS011;66330;52.166;9.978;2023-03-01T10:48:16;11.27;;;10.27;;
77276;SDS011;66330;52.166;9.978;2023-03-01T10:50:50;11.40;;;10.33;;
77276;SDS011;66330;52.166;9.978;2023-03-01T10:53:23;10.43;;;9.33;;
77276;SDS011;66330;52.166;9.978;2023-03-01T10:56:12;10.80;;;9.77;;
77276;SDS011;66330;52.166;9.978;2023-03-01T10:59:01;10.13;;;9.20;;
77276;SDS011;66330;52.166;9.978;2023-03-01T11:01:28;9.47;;;8.40;;
77276;SDS011;66330;52.166;9.978;2023-03-01T11:04:29;8.33;;;7.63;;
77276;SDS011;66330;52.166;9.978;2023-03-01T11:06:57;9.10;;;8.30;;
77276;SDS011;66330;52.166;9.978;2023-03-01T11:09:24;8.97;;;8.17;;
77276;SDS011;66330;52.166;9.978;2023-03-01T11:11:59;10.87;;;9.87;;
77276;SDS011;66330;52.166;9.978;2023-03-01T11:14:27;9.17;;;8.27;;
77276;SDS011;66330;52.166;9.978;2023-03-01T11:17:12;8.70;;;7.93;;
77276;SDS011;66330;52.166;9.978;2023-03-01T11:19:39;8.27;;;7.47;;
77276;SDS011;66330;52.166;9.978;2023-03-01T11:22:07;8.40;;;7.70;;
77276;SDS011;66330;52.166;9.978;2023-03-01T11:27:06;8.50;;;7.60;;
77276;SDS011;66330;52.166;9.978;2023-03-01T11:32:23;9.70;;;8.00;;
77276;SDS011;66330;52.166;9.978;2023-03-01T11:34:54;7.53;;;6.83;;
77276;SDS011;66330;52.166;9.978;2023-03-01T11:40:16;6.50;;;5.90;;
77276;SDS011;66330;52.166;9.978;2023-03-01T11:51:17;7.20;;;6.50;;
77276;SDS011;66330;52.166;9.978;2023-03-01T11:56:43;8.23;;;7.53;;
77276;SDS011;66330;52.166;9.978;2023-03-01T11:59:27;7.60;;;7.00;;
77276;SDS011;66330;52.166;9.978;2023-03-01T12:04:51;6.20;;;5.60;;
77276;SDS011;66330;52.166;9.978;2023-03-01T12:09:51;7.53;;;6.50;;
77276;SDS011;66330;52.166;9.978;2023-03-01T12:13:10;7.47;;;6.77;;
77276;SDS011;66330;52.166;9.978;2023-03-01T12:20:35;6.03;;;5.60;;
77276;SDS011;66330;52.166;9.978;2023-03-01T12:26:33;8.87;;;8.10;;
77276;SDS011;66330;52.166;9.978;2023-03-01T12:37:16;6.23;;;5.63;;
77276;SDS011;66330;52.166;9.978;2023-03-01T12:42:30;6.57;;;5.97;;
77276;SDS011;66330;52.166;9.978;2023-03-01T12:50:59;6.60;;;6.00;;
77276;SDS011;66330;52.166;9.978;2023-03-01T12:53:31;8.43;;;7.77;;
77276;SDS011;66330;52.166;9.978;2023-03-01T12:56:01;6.93;;;6.23;;
77276;SDS011;66330;52.166;9.978;2023-03-01T13:01:39;7.13;;;6.53;;
77276;SDS011;66330;52.166;9.978;2023-03-01T13:04:29;7.77;;;7.07;;
77276;SDS011;66330;52.166;9.978;2023-03-01T13:15:47;6.00;;;5.50;;
77276;SDS011;66330;52.166;9.978;2023-03-01T13:23:11;7.50;;;6.70;;
77276;SDS011;66330;52.166;9.978;2023-03-01T13:31:06;6.43;;;5.27;;
77276;SDS011;66330;52.166;9.978;2023-03-01T13:33:58;5.57;;;5.07;;
77276;SDS011;66330;52.166;9.978;2023-03-01T13:46:48;5.37;;;4.60;;
77276;SDS011;66330;52.166;9.978;2023-03-01T13:49:16;5.37;;;4.87;;
77276;SDS011;66330;52.166;9.978;2023-03-01T13:51:51;5.70;;;5.17;;
77276;SDS011;66330;52.166;9.978;2023-03-01T13:54:20;7.20;;;5.40;;
77276;SDS011;66330;52.166;9.978;2023-03-01T13:56:59;5.33;;;4.93;;
77276;SDS011;66330;52.166;9.978;2023-03-01T13:59:26;5.90;;;5.40;;
77276;SDS011;66330;52.166;9.978;2023-03-01T14:02:00;6.17;;;5.67;;
77276;SDS011;66330;52.166;9.978;2023-03-01T14:04:27;6.50;;;5.90;;
77276;SDS011;66330;52.166;9.978;2023-03-01T14:07:16;6.90;;;6.30;;
77276;SDS011;66330;52.166;9.978;2023-03-01T14:09:51;7.73;;;7.10;;
77276;SDS011;66330;52.166;9.978;2023-03-01T14:15:47;6.33;;;5.87;;
77276;SDS011;66330;52.166;9.978;2023-03-01T14:20:28;6.30;;;5.70;;
77276;SDS011;66330;52.166;9.978;2023-03-01T14:22:58;6.40;;;5.90;;
77276;SDS011;66330;52.166;9.978;2023-03-01T14:25:35;5.57;;;5.13;;
77276;SDS011;66330;52.166;9.978;2023-03-01T14:30:44;5.70;;;5.20;;
77276;SDS011;66330;52.166;9.978;2023-03-01T14:33:18;5.97;;;5.40;;
77276;SDS011;66330;52.166;9.978;2023-03-01T14:36:00;9.13;;;5.97;;
77276;SDS011;66330;52.166;9.978;2023-03-01T14:41:00;7.60;;;7.00;;
77276;SDS011;66330;52.166;9.978;2023-03-01T14:43:30;5.80;;;5.30;;
77276;SDS011;66330;52.166;9.978;2023-03-01T14:45:56;6.00;;;5.43;;
77276;SDS011;66330;52.166;9.978;2023-03-01T14:48:22;5.80;;;5.30;;
77276;SDS011;66330;52.166;9.978;2023-03-01T14:50:48;5.70;;;5.20;;
77276;SDS011;66330;52.166;9.978;2023-03-01T14:53:23;5.97;;;5.40;;
77276;SDS011;66330;52.166;9.978;2023-03-01T14:55:51;8.87;;;8.07;;
77276;SDS011;66330;52.166;9.978;2023-03-01T14:58:22;7.77;;;7.13;;
77276;SDS011;66330;52.166;9.978;2023-03-01T15:01:00;9.93;;;9.03;;
77276;SDS011;66330;52.166;9.978;2023-03-01T15:03:32;6.90;;;6.30;;
77276;SDS011;66330;52.166;9.978;2023-03-01T15:06:04;8.53;;;7.23;;
77276;SDS011;66330;52.166;9.978;2023-03-01T15:08:31;6.10;;;5.60;;
77276;SDS011;66330;52.166;9.978;2023-03-01T15:10:59;6.50;;;6.00;;
77276;SDS011;66330;52.166;9.978;2023-03-01T15:13:28;6.30;;;5.50;;
77276;SDS011;66330;52.166;9.978;2023-03-01T15:16:11;6.00;;;5.40;;
77276;SDS011;66330;52.166;9.978;2023-03-01T15:19:14;8.83;;;8.03;;
77276;SDS011;66330;52.166;9.978;2023-03-01T15:21:33;7.30;;;6.60;;
77276;SDS011;66330;52.166;9.978;2023-03-01T15:26:45;6.90;;;5.53;;
77276;SDS011;66330;52.166;9.978;2023-03-01T15:29:32;5.43;;;4.97;;
77276;SDS011;66330;52.166;9.978;2023-03-01T15:32:20;5.90;;;5.20;;
77276;SDS011;66330;52.166;9.978;2023-03-01T15:34:54;5.40;;;4.67;;
77276;SDS011;66330;52.166;9.978;2023-03-01T15:37:40;7.70;;;5.97;;
77276;SDS011;66330;52.166;9.978;2023-03-01T15:40:25;8.70;;;7.80;;
77276;SDS011;66330;52.166;9.978;2023-03-01T15:45:25;8.57;;;7.70;;
77276;SDS011;66330;52.166;9.978;2023-03-01T15:47:53;7.70;;;7.00;;
77276;SDS011;66330;52.166;9.978;2023-03-01T15:50:27;7.20;;;6.43;;
77276;SDS011;66330;52.166;9.978;2023-03-01T15:52:54;6.67;;;5.97;;
77276;SDS011;66330;52.166;9.978;2023-03-01T15:55:25;8.27;;;5.40;;
77276;SDS011;66330;52.166;9.978;2023-03-01T15:58:15;5.77;;;5.23;;
77276;SDS011;66330;52.166;9.978;2023-03-01T16:00:44;5.53;;;4.67;;
77276;SDS011;66330;52.166;9.978;2023-03-01T16:03:13;7.23;;;6.47;;
77276;SDS011;66330;52.166;9.978;2023-03-01T16:05:39;7.07;;;6.37;;
77276;SDS011;66330;52.166;9.978;2023-03-01T16:08:05;7.60;;;7.00;;
77276;SDS011;66330;52.166;9.978;2023-03-01T16:10:32;6.17;;;5.67;;
77276;SDS011;66330;52.166;9.978;2023-03-01T16:12:58;5.70;;;5.10;;
77276;SDS011;66330;52.166;9.978;2023-03-01T16:15:26;5.40;;;4.93;;
77276;SDS011;66330;52.166;9.978;2023-03-01T16:17:55;6.00;;;5.40;;
77276;SDS011;66330;52.166;9.978;2023-03-01T16:20:22;6.57;;;4.47;;
77276;SDS011;66330;52.166;9.978;2023-03-01T16:22:49;4.90;;;4.50;;
77276;SDS011;66330;52.166;9.978;2023-03-01T16:25:16;5.73;;;4.83;;
77276;SDS011;66330;52.166;9.978;2023-03-01T16:27:44;5.50;;;5.00;;
77276;SDS011;66330;52.166;9.978;2023-03-01T16:30:12;5.57;;;5.00;;
77276;SDS011;66330;52.166;9.978;2023-03-01T16:32:39;5.53;;;4.53;;
77276;SDS011;66330;52.166;9.978;2023-03-01T16:35:05;5.50;;;5.00;;
77276;SDS011;66330;52.166;9.978;2023-03-01T16:37:32;8.33;;;6.27;;
77276;SDS011;66330;52.166;9.978;2023-03-01T16:39:59;7.07;;;5.10;;
77276;SDS011;66330;52.166;9.978;2023-03-01T16:42:24;8.27;;;6.23;;
77276;SDS011;66330;52.166;9.978;2023-03-01T16:44:56;7.77;;;5.90;;
77276;SDS011;66330;52.166;9.978;2023-03-01T16:47:22;6.17;;;5.40;;